sensor_id;sensor_type;location;lat;lon;timestamp;P1;durP1;ratioP1;P2;durP2;ratioP2
74551;SDS011;63025;55.472;38.432;2022-12-18T00:00:57;27.20;;;9.48;;
74551;SDS011;63025;55.472;38.432;2022-12-18T00:03:23;33.03;;;11.90;;
74551;SDS011;63025;55.472;38.432;2022-12-18T00:05:49;32.13;;;12.23;;
74551;SDS011;63025;55.472;38.432;2022-12-18T00:08:16;25.55;;;10.50;;
74551;SDS011;63025;55.472;38.432;2022-12-18T00:10:43;32.95;;;13.48;;
74551;SDS011;63025;55.472;38.432;2022-12-18T00:13:10;29.10;;;10.32;;
74551;SDS011;63025;55.472;38.432;2022-12-18T00:15:37;62.92;;;20.63;;
74551;SDS011;63025;55.472;38.432;2022-12-18T00:18:04;32.05;;;11.27;;
74551;SDS011;63025;55.472;38.432;2022-12-18T00:20:30;59.75;;;20.65;;
74551;SDS011;63025;55.472;38.432;2022-12-18T00:22:56;19.65;;;6.55;;
74551;SDS011;63025;55.472;38.432;2022-12-18T00:25:22;21.50;;;8.93;;
74551;SDS011;63025;55.472;38.432;2022-12-18T00:27:48;46.97;;;16.02;;
74551;SDS011;63025;55.472;38.432;2022-12-18T00:30:14;34.58;;;12.00;;
74551;SDS011;63025;55.472;38.432;2022-12-18T00:32:40;23.73;;;8.85;;
74551;SDS011;63025;55.472;38.432;2022-12-18T00:35:06;28.42;;;9.57;;
74551;SDS011;63025;55.472;38.432;2022-12-18T00:37:35;41.20;;;15.55;;
74551;SDS011;63025;55.472;38.432;2022-12-18T00:40:02;44.13;;;14.23;;
74551;SDS011;63025;55.472;38.432;2022-12-18T00:42:30;25.15;;;8.68;;
74551;SDS011;63025;55.472;38.432;2022-12-18T00:45:14;48.17;;;17.90;;
74551;SDS011;63025;55.472;38.432;2022-12-18T00:47:40;38.03;;;14.23;;
74551;SDS011;63025;55.472;38.432;2022-12-18T00:50:06;22.52;;;8.38;;
74551;SDS011;63025;55.472;38.432;2022-12-18T00:52:33;17.75;;;8.77;;
74551;SDS011;63025;55.472;38.432;2022-12-18T00:54:58;33.22;;;12.77;;
74551;SDS011;63025;55.472;38.432;2022-12-18T00:57:24;55.22;;;19.77;;
74551;SDS011;63025;55.472;38.432;2022-12-18T00:59:50;24.40;;;9.23;;
74551;SDS011;63025;55.472;38.432;2022-12-18T01:02:17;16.48;;;7.10;;
74551;SDS011;63025;55.472;38.432;2022-12-18T01:04:43;39.78;;;15.65;;
74551;SDS011;63025;55.472;38.432;2022-12-18T01:07:09;12.50;;;5.70;;
74551;SDS011;63025;55.472;38.432;2022-12-18T01:09:34;19.83;;;7.70;;
74551;SDS011;63025;55.472;38.432;2022-12-18T01:12:00;24.60;;;8.68;;
74551;SDS011;63025;55.472;38.432;2022-12-18T01:14:26;16.27;;;6.18;;
74551;SDS011;63025;55.472;38.432;2022-12-18T01:16:52;32.95;;;12.88;;
74551;SDS011;63025;55.472;38.432;2022-12-18T01:19:18;22.00;;;7.35;;
74551;SDS011;63025;55.472;38.432;2022-12-18T01:21:45;19.40;;;7.22;;
74551;SDS011;63025;55.472;38.432;2022-12-18T01:24:12;26.80;;;10.13;;
74551;SDS011;63025;55.472;38.432;2022-12-18T01:26:38;18.58;;;8.77;;
74551;SDS011;63025;55.472;38.432;2022-12-18T01:29:04;31.75;;;12.52;;
74551;SDS011;63025;55.472;38.432;2022-12-18T01:31:30;26.60;;;10.05;;
74551;SDS011;63025;55.472;38.432;2022-12-18T01:34:00;27.38;;;10.20;;
74551;SDS011;63025;55.472;38.432;2022-12-18T01:36:31;31.85;;;12.32;;
74551;SDS011;63025;55.472;38.432;2022-12-18T01:39:02;18.17;;;10.38;;
74551;SDS011;63025;55.472;38.432;2022-12-18T01:41:30;28.15;;;11.55;;
74551;SDS011;63025;55.472;38.432;2022-12-18T01:49:59;17.75;;;9.40;;
74551;SDS011;63025;55.472;38.432;2022-12-18T01:52:53;16.65;;;8.45;;
74551;SDS011;63025;55.472;38.432;2022-12-18T01:55:31;25.50;;;13.93;;
74551;SDS011;63025;55.472;38.432;2022-12-18T01:58:01;23.88;;;15.40;;
74551;SDS011;63025;55.472;38.432;2022-12-18T02:00:27;22.67;;;9.38;;
74551;SDS011;63025;55.472;38.432;2022-12-18T02:02:53;14.32;;;7.30;;
74551;SDS011;63025;55.472;38.432;2022-12-18T02:16:25;14.13;;;6.30;;
74551;SDS011;63025;55.472;38.432;2022-12-18T02:18:57;14.88;;;6.38;;
74551;SDS011;63025;55.472;38.432;2022-12-18T02:21:29;14.25;;;5.85;;
74551;SDS011;63025;55.472;38.432;2022-12-18T02:24:33;13.18;;;5.88;;
74551;SDS011;63025;55.472;38.432;2022-12-18T02:26:56;11.45;;;5.18;;
74551;SDS011;63025;55.472;38.432;2022-12-18T02:29:29;14.73;;;6.05;;
74551;SDS011;63025;55.472;38.432;2022-12-18T02:32:00;14.32;;;5.90;;
74551;SDS011;63025;55.472;38.432;2022-12-18T02:34:30;13.82;;;5.50;;
74551;SDS011;63025;55.472;38.432;2022-12-18T02:36:58;12.52;;;5.57;;
74551;SDS011;63025;55.472;38.432;2022-12-18T02:39:28;16.05;;;6.85;;
74551;SDS011;63025;55.472;38.432;2022-12-18T02:42:00;18.23;;;6.95;;
74551;SDS011;63025;55.472;38.432;2022-12-18T02:47:01;17.05;;;6.97;;
74551;SDS011;63025;55.472;38.432;2022-12-18T02:54:57;17.75;;;7.28;;
74551;SDS011;63025;55.472;38.432;2022-12-18T02:57:58;12.20;;;4.72;;
74551;SDS011;63025;55.472;38.432;2022-12-18T03:03:19;11.27;;;5.28;;
74551;SDS011;63025;55.472;38.432;2022-12-18T03:05:52;12.90;;;5.30;;
74551;SDS011;63025;55.472;38.432;2022-12-18T03:08:29;12.27;;;4.85;;
74551;SDS011;63025;55.472;38.432;2022-12-18T03:11:05;10.63;;;4.82;;
74551;SDS011;63025;55.472;38.432;2022-12-18T03:13:39;19.27;;;7.15;;
74551;SDS011;63025;55.472;38.432;2022-12-18T03:16:14;11.73;;;5.43;;
74551;SDS011;63025;55.472;38.432;2022-12-18T03:18:54;11.40;;;4.68;;
74551;SDS011;63025;55.472;38.432;2022-12-18T03:21:27;9.85;;;4.80;;
74551;SDS011;63025;55.472;38.432;2022-12-18T03:23:59;12.70;;;5.30;;
74551;SDS011;63025;55.472;38.432;2022-12-18T03:26:27;14.68;;;5.57;;
74551;SDS011;63025;55.472;38.432;2022-12-18T03:28:59;13.63;;;5.60;;
74551;SDS011;63025;55.472;38.432;2022-12-18T03:31:32;13.98;;;5.18;;
74551;SDS011;63025;55.472;38.432;2022-12-18T03:34:02;11.77;;;4.80;;
74551;SDS011;63025;55.472;38.432;2022-12-18T03:36:40;15.27;;;5.85;;
74551;SDS011;63025;55.472;38.432;2022-12-18T03:39:06;12.13;;;4.80;;
74551;SDS011;63025;55.472;38.432;2022-12-18T03:47:09;13.73;;;6.40;;
74551;SDS011;63025;55.472;38.432;2022-12-18T03:50:08;13.27;;;5.00;;
74551;SDS011;63025;55.472;38.432;2022-12-18T03:55:26;10.77;;;4.63;;
74551;SDS011;63025;55.472;38.432;2022-12-18T03:57:59;11.18;;;4.68;;
74551;SDS011;63025;55.472;38.432;2022-12-18T04:00:37;13.05;;;5.38;;
74551;SDS011;63025;55.472;38.432;2022-12-18T04:03:07;18.42;;;6.78;;
74551;SDS011;63025;55.472;38.432;2022-12-18T04:05:41;10.98;;;5.47;;
74551;SDS011;63025;55.472;38.432;2022-12-18T04:08:09;13.73;;;5.47;;
74551;SDS011;63025;55.472;38.432;2022-12-18T04:10:38;13.68;;;6.57;;
74551;SDS011;63025;55.472;38.432;2022-12-18T04:13:04;9.52;;;4.30;;
74551;SDS011;63025;55.472;38.432;2022-12-18T04:15:31;10.52;;;4.65;;
74551;SDS011;63025;55.472;38.432;2022-12-18T04:18:01;7.97;;;4.45;;
74551;SDS011;63025;55.472;38.432;2022-12-18T04:20:35;10.23;;;4.80;;
74551;SDS011;63025;55.472;38.432;2022-12-18T04:23:02;22.13;;;7.07;;
74551;SDS011;63025;55.472;38.432;2022-12-18T04:25:28;12.63;;;5.03;;
74551;SDS011;63025;55.472;38.432;2022-12-18T04:28:05;10.25;;;4.13;;
74551;SDS011;63025;55.472;38.432;2022-12-18T04:30:32;10.10;;;4.45;;
74551;SDS011;63025;55.472;38.432;2022-12-18T04:32:58;11.05;;;5.07;;
74551;SDS011;63025;55.472;38.432;2022-12-18T04:35:24;10.68;;;4.45;;
74551;SDS011;63025;55.472;38.432;2022-12-18T04:37:50;11.18;;;5.07;;
74551;SDS011;63025;55.472;38.432;2022-12-18T04:40:16;11.07;;;4.72;;
74551;SDS011;63025;55.472;38.432;2022-12-18T04:42:45;10.23;;;4.57;;
74551;SDS011;63025;55.472;38.432;2022-12-18T04:45:11;12.77;;;5.72;;
74551;SDS011;63025;55.472;38.432;2022-12-18T04:47:37;8.93;;;4.00;;
74551;SDS011;63025;55.472;38.432;2022-12-18T04:50:03;9.82;;;4.15;;
74551;SDS011;63025;55.472;38.432;2022-12-18T04:52:32;10.65;;;4.93;;
74551;SDS011;63025;55.472;38.432;2022-12-18T04:54:58;15.00;;;6.55;;
74551;SDS011;63025;55.472;38.432;2022-12-18T04:57:24;18.13;;;7.35;;
74551;SDS011;63025;55.472;38.432;2022-12-18T04:59:49;10.52;;;5.10;;
74551;SDS011;63025;55.472;38.432;2022-12-18T05:02:15;10.48;;;4.38;;
74551;SDS011;63025;55.472;38.432;2022-12-18T05:04:41;11.77;;;5.80;;
74551;SDS011;63025;55.472;38.432;2022-12-18T05:07:07;8.68;;;3.65;;
74551;SDS011;63025;55.472;38.432;2022-12-18T05:09:33;10.55;;;5.60;;
74551;SDS011;63025;55.472;38.432;2022-12-18T05:11:59;12.70;;;5.32;;
74551;SDS011;63025;55.472;38.432;2022-12-18T05:14:24;9.20;;;4.25;;
74551;SDS011;63025;55.472;38.432;2022-12-18T05:16:50;11.10;;;4.53;;
74551;SDS011;63025;55.472;38.432;2022-12-18T05:19:16;14.27;;;6.88;;
74551;SDS011;63025;55.472;38.432;2022-12-18T05:21:42;15.32;;;7.15;;
74551;SDS011;63025;55.472;38.432;2022-12-18T05:24:08;9.77;;;4.70;;
74551;SDS011;63025;55.472;38.432;2022-12-18T05:26:34;10.05;;;4.53;;
74551;SDS011;63025;55.472;38.432;2022-12-18T05:29:00;14.25;;;5.95;;
74551;SDS011;63025;55.472;38.432;2022-12-18T05:31:26;10.63;;;5.70;;
74551;SDS011;63025;55.472;38.432;2022-12-18T05:33:51;7.15;;;3.90;;
74551;SDS011;63025;55.472;38.432;2022-12-18T05:36:17;18.30;;;7.82;;
74551;SDS011;63025;55.472;38.432;2022-12-18T05:38:43;11.57;;;5.50;;
74551;SDS011;63025;55.472;38.432;2022-12-18T05:41:09;12.77;;;5.30;;
74551;SDS011;63025;55.472;38.432;2022-12-18T05:43:36;8.25;;;3.92;;
74551;SDS011;63025;55.472;38.432;2022-12-18T05:46:07;8.68;;;4.40;;
74551;SDS011;63025;55.472;38.432;2022-12-18T05:48:37;9.07;;;4.15;;
74551;SDS011;63025;55.472;38.432;2022-12-18T05:51:03;9.80;;;4.40;;
74551;SDS011;63025;55.472;38.432;2022-12-18T05:53:33;11.98;;;5.15;;
74551;SDS011;63025;55.472;38.432;2022-12-18T05:56:01;14.43;;;6.35;;
74551;SDS011;63025;55.472;38.432;2022-12-18T05:58:28;14.48;;;6.05;;
74551;SDS011;63025;55.472;38.432;2022-12-18T06:00:54;10.30;;;4.03;;
74551;SDS011;63025;55.472;38.432;2022-12-18T06:03:20;12.40;;;5.53;;
74551;SDS011;63025;55.472;38.432;2022-12-18T06:05:45;15.75;;;6.07;;
74551;SDS011;63025;55.472;38.432;2022-12-18T06:08:12;9.02;;;4.82;;
74551;SDS011;63025;55.472;38.432;2022-12-18T06:10:38;14.10;;;5.95;;
74551;SDS011;63025;55.472;38.432;2022-12-18T06:13:05;11.45;;;5.20;;
74551;SDS011;63025;55.472;38.432;2022-12-18T06:15:31;9.70;;;4.57;;
74551;SDS011;63025;55.472;38.432;2022-12-18T06:17:58;12.07;;;5.00;;
74551;SDS011;63025;55.472;38.432;2022-12-18T06:20:26;10.25;;;5.47;;
74551;SDS011;63025;55.472;38.432;2022-12-18T06:22:51;11.05;;;5.68;;
74551;SDS011;63025;55.472;38.432;2022-12-18T06:25:17;15.50;;;7.07;;
74551;SDS011;63025;55.472;38.432;2022-12-18T06:27:43;9.23;;;4.50;;
74551;SDS011;63025;55.472;38.432;2022-12-18T06:30:09;8.68;;;4.35;;
74551;SDS011;63025;55.472;38.432;2022-12-18T06:32:35;14.43;;;6.00;;
74551;SDS011;63025;55.472;38.432;2022-12-18T06:35:01;7.15;;;3.83;;
74551;SDS011;63025;55.472;38.432;2022-12-18T06:37:28;15.73;;;6.72;;
74551;SDS011;63025;55.472;38.432;2022-12-18T06:39:56;7.90;;;3.67;;
74551;SDS011;63025;55.472;38.432;2022-12-18T06:42:23;8.77;;;4.43;;
74551;SDS011;63025;55.472;38.432;2022-12-18T06:44:49;13.73;;;6.18;;
74551;SDS011;63025;55.472;38.432;2022-12-18T06:47:15;8.25;;;4.03;;
74551;SDS011;63025;55.472;38.432;2022-12-18T06:49:41;11.45;;;5.00;;
74551;SDS011;63025;55.472;38.432;2022-12-18T06:52:07;6.03;;;3.55;;
74551;SDS011;63025;55.472;38.432;2022-12-18T06:54:32;16.30;;;7.50;;
74551;SDS011;63025;55.472;38.432;2022-12-18T06:56:58;9.88;;;4.68;;
74551;SDS011;63025;55.472;38.432;2022-12-18T06:59:24;8.50;;;4.38;;
74551;SDS011;63025;55.472;38.432;2022-12-18T07:01:50;15.65;;;5.55;;
74551;SDS011;63025;55.472;38.432;2022-12-18T07:04:16;12.85;;;6.00;;
74551;SDS011;63025;55.472;38.432;2022-12-18T07:06:42;10.75;;;4.82;;
74551;SDS011;63025;55.472;38.432;2022-12-18T07:09:08;7.47;;;3.72;;
74551;SDS011;63025;55.472;38.432;2022-12-18T07:11:34;15.73;;;6.80;;
74551;SDS011;63025;55.472;38.432;2022-12-18T07:14:00;16.80;;;6.82;;
74551;SDS011;63025;55.472;38.432;2022-12-18T07:16:26;9.27;;;4.45;;
74551;SDS011;63025;55.472;38.432;2022-12-18T07:18:54;12.43;;;5.15;;
74551;SDS011;63025;55.472;38.432;2022-12-18T07:21:20;11.27;;;5.18;;
74551;SDS011;63025;55.472;38.432;2022-12-18T07:23:47;11.07;;;4.40;;
74551;SDS011;63025;55.472;38.432;2022-12-18T07:26:13;16.85;;;6.15;;
74551;SDS011;63025;55.472;38.432;2022-12-18T07:28:42;14.88;;;6.10;;
74551;SDS011;63025;55.472;38.432;2022-12-18T07:31:10;15.32;;;7.18;;
74551;SDS011;63025;55.472;38.432;2022-12-18T07:33:37;12.65;;;5.47;;
74551;SDS011;63025;55.472;38.432;2022-12-18T07:36:04;13.25;;;5.95;;
74551;SDS011;63025;55.472;38.432;2022-12-18T07:38:32;11.23;;;5.05;;
74551;SDS011;63025;55.472;38.432;2022-12-18T07:41:02;11.57;;;5.55;;
74551;SDS011;63025;55.472;38.432;2022-12-18T07:43:30;18.02;;;7.70;;
74551;SDS011;63025;55.472;38.432;2022-12-18T07:45:56;8.98;;;4.53;;
74551;SDS011;63025;55.472;38.432;2022-12-18T07:48:22;11.60;;;5.53;;
74551;SDS011;63025;55.472;38.432;2022-12-18T07:50:48;16.67;;;7.35;;
74551;SDS011;63025;55.472;38.432;2022-12-18T07:53:14;9.55;;;4.75;;
74551;SDS011;63025;55.472;38.432;2022-12-18T07:55:40;11.05;;;5.03;;
74551;SDS011;63025;55.472;38.432;2022-12-18T07:58:07;13.25;;;6.38;;
74551;SDS011;63025;55.472;38.432;2022-12-18T08:00:33;12.48;;;5.60;;
74551;SDS011;63025;55.472;38.432;2022-12-18T08:03:00;16.95;;;7.03;;
74551;SDS011;63025;55.472;38.432;2022-12-18T08:05:26;15.10;;;6.60;;
74551;SDS011;63025;55.472;38.432;2022-12-18T08:07:52;14.13;;;6.28;;
74551;SDS011;63025;55.472;38.432;2022-12-18T08:10:18;15.63;;;6.82;;
74551;SDS011;63025;55.472;38.432;2022-12-18T08:12:45;15.10;;;6.47;;
74551;SDS011;63025;55.472;38.432;2022-12-18T08:15:14;10.05;;;5.07;;
74551;SDS011;63025;55.472;38.432;2022-12-18T08:17:40;12.48;;;5.40;;
74551;SDS011;63025;55.472;38.432;2022-12-18T08:20:05;12.20;;;5.32;;
74551;SDS011;63025;55.472;38.432;2022-12-18T08:22:33;13.60;;;6.80;;
74551;SDS011;63025;55.472;38.432;2022-12-18T08:25:01;14.65;;;6.32;;
74551;SDS011;63025;55.472;38.432;2022-12-18T08:27:29;12.38;;;5.80;;
74551;SDS011;63025;55.472;38.432;2022-12-18T08:29:55;15.90;;;5.90;;
74551;SDS011;63025;55.472;38.432;2022-12-18T08:32:21;12.00;;;5.10;;
74551;SDS011;63025;55.472;38.432;2022-12-18T08:34:47;13.85;;;6.25;;
74551;SDS011;63025;55.472;38.432;2022-12-18T08:37:12;10.00;;;4.82;;
74551;SDS011;63025;55.472;38.432;2022-12-18T08:39:38;16.77;;;7.68;;
74551;SDS011;63025;55.472;38.432;2022-12-18T08:42:04;12.10;;;5.82;;
74551;SDS011;63025;55.472;38.432;2022-12-18T08:44:49;15.80;;;7.25;;
74551;SDS011;63025;55.472;38.432;2022-12-18T08:47:15;13.82;;;6.65;;
74551;SDS011;63025;55.472;38.432;2022-12-18T08:49:40;16.65;;;7.45;;
74551;SDS011;63025;55.472;38.432;2022-12-18T08:52:06;12.93;;;6.13;;
74551;SDS011;63025;55.472;38.432;2022-12-18T08:54:32;15.00;;;6.72;;
74551;SDS011;63025;55.472;38.432;2022-12-18T08:56:58;12.13;;;5.50;;
74551;SDS011;63025;55.472;38.432;2022-12-18T08:59:23;12.98;;;5.38;;
74551;SDS011;63025;55.472;38.432;2022-12-18T09:01:49;11.32;;;5.35;;
74551;SDS011;63025;55.472;38.432;2022-12-18T09:04:15;10.38;;;4.72;;
74551;SDS011;63025;55.472;38.432;2022-12-18T09:06:41;12.60;;;6.20;;
74551;SDS011;63025;55.472;38.432;2022-12-18T09:09:07;9.93;;;5.25;;
74551;SDS011;63025;55.472;38.432;2022-12-18T09:11:33;10.98;;;5.47;;
74551;SDS011;63025;55.472;38.432;2022-12-18T09:14:00;15.38;;;6.07;;
74551;SDS011;63025;55.472;38.432;2022-12-18T09:16:26;14.00;;;6.63;;
74551;SDS011;63025;55.472;38.432;2022-12-18T09:18:56;11.98;;;6.13;;
74551;SDS011;63025;55.472;38.432;2022-12-18T09:21:25;11.80;;;5.15;;
74551;SDS011;63025;55.472;38.432;2022-12-18T09:23:53;9.90;;;5.57;;
74551;SDS011;63025;55.472;38.432;2022-12-18T09:26:20;14.80;;;6.70;;
74551;SDS011;63025;55.472;38.432;2022-12-18T09:28:47;10.32;;;5.13;;
74551;SDS011;63025;55.472;38.432;2022-12-18T09:31:13;10.68;;;5.03;;
74551;SDS011;63025;55.472;38.432;2022-12-18T09:33:42;13.20;;;7.03;;
74551;SDS011;63025;55.472;38.432;2022-12-18T09:36:09;10.25;;;4.97;;
74551;SDS011;63025;55.472;38.432;2022-12-18T09:38:36;8.35;;;4.50;;
74551;SDS011;63025;55.472;38.432;2022-12-18T09:41:06;9.52;;;4.03;;
74551;SDS011;63025;55.472;38.432;2022-12-18T09:43:58;13.65;;;6.28;;
74551;SDS011;63025;55.472;38.432;2022-12-18T09:46:33;9.52;;;4.53;;
74551;SDS011;63025;55.472;38.432;2022-12-18T09:49:05;10.93;;;4.60;;
74551;SDS011;63025;55.472;38.432;2022-12-18T09:51:43;10.77;;;5.40;;
74551;SDS011;63025;55.472;38.432;2022-12-18T09:54:16;9.10;;;4.50;;
74551;SDS011;63025;55.472;38.432;2022-12-18T09:56:48;12.45;;;5.40;;
74551;SDS011;63025;55.472;38.432;2022-12-18T10:02:11;9.88;;;4.30;;
74551;SDS011;63025;55.472;38.432;2022-12-18T10:04:40;12.32;;;4.78;;
74551;SDS011;63025;55.472;38.432;2022-12-18T10:07:23;13.48;;;5.50;;
74551;SDS011;63025;55.472;38.432;2022-12-18T10:13:02;7.68;;;3.85;;
74551;SDS011;63025;55.472;38.432;2022-12-18T10:18:05;11.90;;;5.28;;
74551;SDS011;63025;55.472;38.432;2022-12-18T10:20:48;9.88;;;3.85;;
74551;SDS011;63025;55.472;38.432;2022-12-18T10:26:02;11.20;;;4.45;;
74551;SDS011;63025;55.472;38.432;2022-12-18T10:28:30;13.68;;;5.80;;
74551;SDS011;63025;55.472;38.432;2022-12-18T10:30:57;14.00;;;5.78;;
74551;SDS011;63025;55.472;38.432;2022-12-18T10:33:24;12.05;;;4.65;;
74551;SDS011;63025;55.472;38.432;2022-12-18T10:35:54;8.57;;;4.40;;
74551;SDS011;63025;55.472;38.432;2022-12-18T10:41:00;7.85;;;3.75;;
74551;SDS011;63025;55.472;38.432;2022-12-18T10:43:29;10.63;;;3.92;;
74551;SDS011;63025;55.472;38.432;2022-12-18T10:48:33;8.00;;;3.55;;
74551;SDS011;63025;55.472;38.432;2022-12-18T10:51:01;11.00;;;5.53;;
74551;SDS011;63025;55.472;38.432;2022-12-18T10:53:29;9.75;;;3.75;;
74551;SDS011;63025;55.472;38.432;2022-12-18T10:55:57;9.68;;;4.05;;
74551;SDS011;63025;55.472;38.432;2022-12-18T10:58:28;9.05;;;3.97;;
74551;SDS011;63025;55.472;38.432;2022-12-18T11:01:15;11.40;;;4.80;;
74551;SDS011;63025;55.472;38.432;2022-12-18T11:03:47;11.10;;;5.30;;
74551;SDS011;63025;55.472;38.432;2022-12-18T11:06:25;12.80;;;5.03;;
74551;SDS011;63025;55.472;38.432;2022-12-18T11:08:59;13.05;;;5.35;;
74551;SDS011;63025;55.472;38.432;2022-12-18T11:11:27;10.43;;;4.97;;
74551;SDS011;63025;55.472;38.432;2022-12-18T11:14:06;9.63;;;5.25;;
74551;SDS011;63025;55.472;38.432;2022-12-18T11:16:44;9.95;;;4.50;;
74551;SDS011;63025;55.472;38.432;2022-12-18T11:19:19;7.63;;;3.58;;
74551;SDS011;63025;55.472;38.432;2022-12-18T11:24:32;8.73;;;3.90;;
74551;SDS011;63025;55.472;38.432;2022-12-18T11:27:21;9.10;;;4.65;;
74551;SDS011;63025;55.472;38.432;2022-12-18T11:29:46;9.32;;;4.07;;
74551;SDS011;63025;55.472;38.432;2022-12-18T11:37:43;9.32;;;4.43;;
74551;SDS011;63025;55.472;38.432;2022-12-18T11:40:19;11.20;;;4.55;;
74551;SDS011;63025;55.472;38.432;2022-12-18T11:53:02;10.32;;;4.45;;
74551;SDS011;63025;55.472;38.432;2022-12-18T11:55:35;10.05;;;4.88;;
74551;SDS011;63025;55.472;38.432;2022-12-18T11:58:14;7.80;;;3.85;;
74551;SDS011;63025;55.472;38.432;2022-12-18T12:01:31;10.48;;;3.47;;
74551;SDS011;63025;55.472;38.432;2022-12-18T12:04:01;10.13;;;5.15;;
74551;SDS011;63025;55.472;38.432;2022-12-18T12:09:41;11.23;;;3.85;;
74551;SDS011;63025;55.472;38.432;2022-12-18T12:20:48;8.07;;;3.08;;
74551;SDS011;63025;55.472;38.432;2022-12-18T12:23:35;8.15;;;3.83;;
74551;SDS011;63025;55.472;38.432;2022-12-18T12:26:30;12.07;;;4.70;;
74551;SDS011;63025;55.472;38.432;2022-12-18T12:34:17;9.00;;;4.15;;
74551;SDS011;63025;55.472;38.432;2022-12-18T12:39:38;10.70;;;4.82;;
74551;SDS011;63025;55.472;38.432;2022-12-18T12:42:13;8.18;;;3.53;;
74551;SDS011;63025;55.472;38.432;2022-12-18T12:45:16;9.80;;;3.72;;
74551;SDS011;63025;55.472;38.432;2022-12-18T12:47:52;8.07;;;3.47;;
74551;SDS011;63025;55.472;38.432;2022-12-18T12:50:20;8.95;;;3.90;;
74551;SDS011;63025;55.472;38.432;2022-12-18T12:52:50;7.93;;;3.70;;
74551;SDS011;63025;55.472;38.432;2022-12-18T12:55:20;10.23;;;3.42;;
74551;SDS011;63025;55.472;38.432;2022-12-18T13:00:27;9.73;;;4.43;;
74551;SDS011;63025;55.472;38.432;2022-12-18T13:06:02;10.90;;;4.85;;
74551;SDS011;63025;55.472;38.432;2022-12-18T13:08:51;7.60;;;3.65;;
74551;SDS011;63025;55.472;38.432;2022-12-18T13:11:30;7.70;;;3.60;;
74551;SDS011;63025;55.472;38.432;2022-12-18T13:14:26;9.02;;;4.05;;
74551;SDS011;63025;55.472;38.432;2022-12-18T13:17:09;7.95;;;3.47;;
74551;SDS011;63025;55.472;38.432;2022-12-18T13:19:44;6.03;;;2.28;;
74551;SDS011;63025;55.472;38.432;2022-12-18T13:22:20;8.00;;;3.28;;
74551;SDS011;63025;55.472;38.432;2022-12-18T13:25:01;7.70;;;3.20;;
74551;SDS011;63025;55.472;38.432;2022-12-18T13:28:13;5.30;;;2.63;;
74551;SDS011;63025;55.472;38.432;2022-12-18T13:35:42;6.45;;;2.72;;
74551;SDS011;63025;55.472;38.432;2022-12-18T13:38:23;6.15;;;2.97;;
74551;SDS011;63025;55.472;38.432;2022-12-18T13:41:01;9.00;;;3.63;;
74551;SDS011;63025;55.472;38.432;2022-12-18T13:43:49;7.38;;;3.05;;
74551;SDS011;63025;55.472;38.432;2022-12-18T13:46:30;6.68;;;2.78;;
74551;SDS011;63025;55.472;38.432;2022-12-18T13:49:22;6.28;;;2.88;;
74551;SDS011;63025;55.472;38.432;2022-12-18T13:51:50;4.32;;;2.13;;
74551;SDS011;63025;55.472;38.432;2022-12-18T13:56:52;5.30;;;1.98;;
74551;SDS011;63025;55.472;38.432;2022-12-18T13:59:19;5.95;;;2.83;;
74551;SDS011;63025;55.472;38.432;2022-12-18T14:04:21;7.13;;;3.42;;
74551;SDS011;63025;55.472;38.432;2022-12-18T14:06:49;6.15;;;2.78;;
74551;SDS011;63025;55.472;38.432;2022-12-18T14:09:19;9.10;;;4.15;;
74551;SDS011;63025;55.472;38.432;2022-12-18T14:11:54;6.55;;;2.72;;
74551;SDS011;63025;55.472;38.432;2022-12-18T14:14:43;7.60;;;3.90;;
74551;SDS011;63025;55.472;38.432;2022-12-18T14:17:14;5.95;;;2.70;;
74551;SDS011;63025;55.472;38.432;2022-12-18T14:19:42;4.35;;;2.33;;
74551;SDS011;63025;55.472;38.432;2022-12-18T14:22:19;5.15;;;2.20;;
74551;SDS011;63025;55.472;38.432;2022-12-18T14:24:47;4.65;;;2.33;;
74551;SDS011;63025;55.472;38.432;2022-12-18T14:27:30;5.85;;;3.08;;
74551;SDS011;63025;55.472;38.432;2022-12-18T14:29:56;5.95;;;2.53;;
74551;SDS011;63025;55.472;38.432;2022-12-18T14:32:23;6.35;;;3.22;;
74551;SDS011;63025;55.472;38.432;2022-12-18T14:34:52;7.10;;;3.47;;
74551;SDS011;63025;55.472;38.432;2022-12-18T14:37:23;6.20;;;2.55;;
74551;SDS011;63025;55.472;38.432;2022-12-18T14:42:20;6.13;;;2.70;;
74551;SDS011;63025;55.472;38.432;2022-12-18T14:44:46;7.80;;;3.53;;
74551;SDS011;63025;55.472;38.432;2022-12-18T14:47:15;4.45;;;2.08;;
74551;SDS011;63025;55.472;38.432;2022-12-18T14:49:42;6.00;;;2.65;;
74551;SDS011;63025;55.472;38.432;2022-12-18T14:52:26;4.90;;;2.58;;
74551;SDS011;63025;55.472;38.432;2022-12-18T14:54:56;10.27;;;3.25;;
74551;SDS011;63025;55.472;38.432;2022-12-18T14:57:25;5.68;;;2.35;;
74551;SDS011;63025;55.472;38.432;2022-12-18T15:00:04;5.07;;;2.17;;
74551;SDS011;63025;55.472;38.432;2022-12-18T15:02:40;6.35;;;2.95;;
74551;SDS011;63025;55.472;38.432;2022-12-18T15:07:40;6.32;;;2.88;;
74551;SDS011;63025;55.472;38.432;2022-12-18T15:10:12;5.30;;;2.60;;
74551;SDS011;63025;55.472;38.432;2022-12-18T15:12:46;4.25;;;2.25;;
74551;SDS011;63025;55.472;38.432;2022-12-18T15:20:40;5.03;;;2.25;;
74551;SDS011;63025;55.472;38.432;2022-12-18T15:23:26;4.22;;;1.90;;
74551;SDS011;63025;55.472;38.432;2022-12-18T15:36:24;6.05;;;2.70;;
74551;SDS011;63025;55.472;38.432;2022-12-18T15:38:55;6.22;;;3.25;;
74551;SDS011;63025;55.472;38.432;2022-12-18T15:41:23;6.68;;;2.65;;
74551;SDS011;63025;55.472;38.432;2022-12-18T15:43:50;6.50;;;3.35;;
74551;SDS011;63025;55.472;38.432;2022-12-18T15:46:18;8.50;;;3.17;;
74551;SDS011;63025;55.472;38.432;2022-12-18T15:48:47;5.45;;;2.47;;
74551;SDS011;63025;55.472;38.432;2022-12-18T15:51:15;8.65;;;4.03;;
74551;SDS011;63025;55.472;38.432;2022-12-18T15:53:47;6.63;;;3.47;;
74551;SDS011;63025;55.472;38.432;2022-12-18T15:56:15;12.73;;;4.35;;
74551;SDS011;63025;55.472;38.432;2022-12-18T15:59:01;8.07;;;3.50;;
74551;SDS011;63025;55.472;38.432;2022-12-18T16:01:28;13.32;;;4.65;;
74551;SDS011;63025;55.472;38.432;2022-12-18T16:03:56;17.17;;;6.40;;
74551;SDS011;63025;55.472;38.432;2022-12-18T16:06:25;18.88;;;6.20;;
74551;SDS011;63025;55.472;38.432;2022-12-18T16:08:51;12.95;;;4.68;;
74551;SDS011;63025;55.472;38.432;2022-12-18T16:14:29;17.23;;;6.63;;
74551;SDS011;63025;55.472;38.432;2022-12-18T16:16:58;18.23;;;6.82;;
74551;SDS011;63025;55.472;38.432;2022-12-18T16:19:26;19.98;;;6.97;;
74551;SDS011;63025;55.472;38.432;2022-12-18T16:21:56;16.80;;;6.03;;
74551;SDS011;63025;55.472;38.432;2022-12-18T16:24:24;16.33;;;6.35;;
74551;SDS011;63025;55.472;38.432;2022-12-18T16:26:52;16.25;;;6.43;;
74551;SDS011;63025;55.472;38.432;2022-12-18T16:29:20;6.20;;;2.85;;
74551;SDS011;63025;55.472;38.432;2022-12-18T16:31:50;12.10;;;5.13;;
74551;SDS011;63025;55.472;38.432;2022-12-18T16:34:27;12.65;;;4.55;;
74551;SDS011;63025;55.472;38.432;2022-12-18T16:36:58;10.80;;;5.00;;
74551;SDS011;63025;55.472;38.432;2022-12-18T16:39:26;6.25;;;3.40;;
74551;SDS011;63025;55.472;38.432;2022-12-18T16:41:52;10.93;;;4.55;;
74551;SDS011;63025;55.472;38.432;2022-12-18T16:44:19;10.60;;;4.60;;
74551;SDS011;63025;55.472;38.432;2022-12-18T16:46:48;9.73;;;4.32;;
74551;SDS011;63025;55.472;38.432;2022-12-18T16:49:14;13.32;;;5.30;;
74551;SDS011;63025;55.472;38.432;2022-12-18T16:51:45;10.88;;;4.22;;
74551;SDS011;63025;55.472;38.432;2022-12-18T16:54:11;7.90;;;3.50;;